BKPR

Pristina

Airport
ICAO code
BKPR
Summary
ICAO Region
EUR
ICAO Territory
Location

Slatina, Pristina,

Coordinates
42° 34' 22" N , 21° 2' 9" E
KCC
Metar
Observation
BKPR 252030Z 12005KT 9999 BKN060 14/09 Q1017 NOSIG
Station
PRISHTINA
Date/Time
2022-09-25 20:30:00
Wind direction
120°
Wind speed
05 kts
Lowest cloud amount
broken clouds
Temperature
14°C
Dew point
9°C
Humidity
71%
QNH
1017 hPa
Weather condition
n/a

Description

Pristina International Airport is an international airport located 15 km southwest of Pristina, Kosovo. It is co-located with Slatina Air Base.

Climatology

Humid “subtropical” climate (Köppen climate classification Cfa) - characterized by hot, humid summers and cool winters. Significant amounts of precipitation occur in all seasons in most areas. Winter rainfall (and sometimes snowfall) is associated with large storms that the westerlies steer from west to east. Most summer rainfall occurs during thunderstorms.

Runways

Designator Length Width Surface Rops
17/35 2489 45 ASP Yes/Yes

SKYbrary Partners:

Safety knowledge contributed by: